الصفحة الرئيسية
METAR-TAF:

METAR-TAF

مطار :

تروخيلو, بيرو

دائرة عرض: 08-06S, خط طول: 079-02W, ارتفاع: 26 متر

مراقبة الطقس الحالي

تاريخ ووقت الإصدار 1ساعة و 14 دقيقة قبل الساعة 02:00UTC
ريح 7 عقدة من الجنوب الشرقي
درجة الحرارة 17°درجة مئوية
الرطوبة 82%
ضغط 1014 hPa
الرؤية: 7000 متر
رقع من الضباب

METAR: SPRU 250200Z 14007KT 7000 BCFG NSC 17/14 Q1014 RMK PP000

زمن: 22:14 (03:14 UTC)

توقعات

تاريخ ووقت الإصدار 4ساعات و 4 دقيقة قبل الساعة 23:10UTC
التوقعات صالحة من25 الساعة 00 UTC إلى 25 الساعة 24 UTC
ريح 6 عقدة من الجنوب/الجنوب الشرقي
الرؤية: 7000 متر
أصبح
من 25 الساعة 04 UTC إلى 25 الساعة 06 UTC
ملبد بالغيوم على ارتفاع 1200 قدم
مؤقت
من 25 الساعة 08 UTC إلى 25 الساعة 10 UTC
الرؤية: 4000 متر
غشاء
أصبح
من 25 الساعة 13 UTC إلى 25 الساعة 15 UTC
غيوم مفككة على ارتفاع 1700 قدم
من 25 الساعة 1800 UTC
ريح 10 عقدة من الجنوب/الجنوب الغربي
الرؤية: 8000 متر

TAF: SPRU 242310Z 2500/2524 16006KT 7000 NSC TX21/2519Z TN16/2511Z BECMG 2504/2506 OVC012 TEMPO 2508/2510 4000 BR BECMG 2513/2515 BKN017 FM251800 20010KT 8000 NSC

أرصاد الطقس والتوقعات من أكثر من 4000 مطار (تقارير الطقس للمطار METAR والتنبؤ بالطقس بالمطارTAF).

المحطات المتاحة هي النقط الصفراء والحمراء على الخريطة.

حرك المؤشر فوق النقطة لمعرفة اسم المحطة.

ثم انقر لمعرفة أرصاد وتوقعات الطقس.

لتغيير الخارطة: اضغط على الأزرار الخضراء مع رمز الصليب الأسود للتكبير. على الزر الأخضر مع شرطة للتصغير، أو على الأسهم الخضراء للخرائط المجاورة.


METAR-TAF: